createdAt,value
2023-02-19T00:02:14.143Z,13.25
2023-02-19T00:05:16.607Z,13.50
2023-02-19T00:08:19.059Z,14.07
2023-02-19T00:11:25.792Z,13.13
2023-02-19T00:14:28.233Z,13.87
2023-02-19T00:17:31.868Z,13.73
2023-02-19T00:20:34.311Z,12.50
2023-02-19T00:23:37.419Z,13.85
2023-02-19T00:26:41.223Z,12.60
2023-02-19T00:29:43.573Z,12.90
2023-02-19T00:32:51.513Z,14.13
2023-02-19T00:35:53.858Z,13.70
2023-02-19T00:38:56.657Z,11.90
2023-02-19T00:42:00.997Z,11.67
2023-02-19T00:45:03.440Z,12.07
2023-02-19T00:48:05.865Z,12.98
2023-02-19T00:51:08.443Z,12.68
2023-02-19T00:54:12.349Z,12.10
2023-02-19T00:57:14.659Z,12.20
2023-02-19T01:00:17.142Z,13.10
2023-02-19T01:03:19.674Z,13.13
2023-02-19T01:06:22.593Z,12.65
2023-02-19T01:09:25.252Z,11.80
2023-02-19T01:12:28.363Z,12.60
2023-02-19T01:15:33.113Z,11.53
2023-02-19T01:18:35.896Z,11.30
2023-02-19T01:21:39.897Z,11.43
2023-02-19T01:24:42.338Z,11.27
2023-02-19T01:27:44.799Z,11.57
2023-02-19T01:30:47.328Z,11.37
2023-02-19T01:33:56.807Z,11.68
2023-02-19T01:36:59.530Z,11.23
2023-02-19T01:40:01.933Z,10.02
2023-02-19T01:43:04.364Z,10.13
2023-02-19T01:46:06.766Z,9.37
2023-02-19T01:49:23.770Z,9.75
2023-02-19T01:52:34.709Z,10.02
2023-02-19T01:55:37.509Z,9.77
2023-02-19T01:58:41.076Z,10.40
2023-02-19T02:01:43.589Z,9.90
2023-02-19T02:04:45.953Z,10.57
2023-02-19T02:08:23.937Z,14.27
2023-02-19T02:11:26.932Z,11.40
2023-02-19T02:14:33.734Z,13.53
2023-02-19T02:18:00.666Z,10.83
2023-02-19T02:21:25.245Z,10.15
2023-02-19T02:24:46.576Z,12.23
2023-02-19T02:27:52.796Z,12.98
2023-02-19T02:31:02.901Z,10.83
2023-02-19T02:34:07.490Z,11.07
2023-02-19T02:37:11.378Z,11.12
2023-02-19T02:40:17.081Z,15.60
2023-02-19T02:43:19.461Z,14.40
2023-02-19T02:46:36.242Z,26.70
2023-02-19T02:49:59.206Z,12.43
2023-02-19T02:53:25.264Z,11.60
2023-02-19T02:56:29.017Z,10.77
2023-02-19T02:59:36.091Z,9.02
2023-02-19T03:02:40.337Z,10.37
2023-02-19T03:05:53.431Z,10.03
2023-02-19T03:09:07.166Z,11.43
2023-02-19T03:12:33.869Z,11.23
2023-02-19T03:16:03.892Z,9.13
2023-02-19T03:19:20.682Z,10.23
2023-02-19T03:22:30.143Z,10.50
2023-02-19T03:25:54.756Z,13.02
2023-02-19T03:29:17.304Z,10.65
2023-02-19T03:32:27.244Z,10.45
2023-02-19T03:35:33.419Z,9.77
2023-02-19T03:38:38.469Z,10.60
2023-02-19T03:41:48.162Z,10.27
2023-02-19T03:45:30.303Z,9.88
2023-02-19T03:48:49.074Z,9.68
2023-02-19T03:52:11.491Z,10.40
2023-02-19T03:55:27.179Z,11.50
2023-02-19T03:58:41.183Z,9.52
2023-02-19T04:01:55.629Z,10.95
2023-02-19T04:05:19.241Z,11.38
2023-02-19T04:08:24.635Z,10.87
2023-02-19T04:11:28.263Z,9.50
2023-02-19T04:14:49.394Z,11.77
2023-02-19T04:17:57.610Z,9.50
2023-02-19T04:21:01.091Z,11.27
2023-02-19T04:24:09.280Z,11.10
2023-02-19T04:27:11.845Z,12.03
2023-02-19T04:30:15.464Z,11.95
2023-02-19T04:33:17.775Z,12.48
2023-02-19T04:36:20.068Z,12.37
2023-02-19T04:39:22.463Z,12.23
2023-02-19T04:42:24.767Z,13.37
2023-02-19T04:45:27.078Z,13.10
2023-02-19T04:48:29.768Z,13.85
2023-02-19T04:51:32.569Z,13.43
2023-02-19T04:54:35.018Z,12.90
2023-02-19T04:57:37.414Z,12.87
2023-02-19T05:00:40.395Z,12.25
2023-02-19T05:03:43.029Z,14.73
2023-02-19T05:06:45.355Z,14.80
2023-02-19T05:09:47.581Z,13.80
2023-02-19T05:12:50.194Z,13.40
2023-02-19T05:16:07.142Z,14.90
2023-02-19T05:19:13.006Z,14.23
2023-02-19T05:22:15.338Z,14.93
2023-02-19T05:25:17.917Z,15.27
2023-02-19T05:28:20.825Z,13.83
2023-02-19T05:34:26.404Z,16.50
2023-02-19T05:37:28.897Z,14.50
2023-02-19T05:40:31.286Z,14.30
2023-02-19T05:43:33.689Z,14.40
2023-02-19T05:46:36.171Z,14.57
2023-02-19T05:49:38.602Z,13.45
2023-02-19T05:52:41.287Z,15.02
2023-02-19T05:55:43.566Z,13.80
2023-02-19T05:58:46.122Z,14.67
2023-02-19T06:01:50.995Z,14.77
2023-02-19T06:04:53.243Z,15.13
2023-02-19T06:07:55.554Z,13.85
2023-02-19T06:10:58.564Z,14.03
2023-02-19T06:14:00.968Z,14.43
2023-02-19T06:17:03.229Z,14.95
2023-02-19T06:20:06.804Z,17.12
2023-02-19T06:23:09.173Z,15.43
2023-02-19T06:26:23.296Z,15.50
2023-02-19T06:29:25.693Z,14.13
2023-02-19T06:32:28.160Z,14.07
2023-02-19T06:35:30.454Z,13.98
2023-02-19T06:38:32.881Z,14.30
2023-02-19T06:41:35.394Z,14.27
2023-02-19T06:44:37.899Z,13.83
2023-02-19T06:47:40.224Z,12.40
2023-02-19T06:50:42.877Z,13.80
2023-02-19T06:53:46.521Z,13.98
2023-02-19T06:56:48.919Z,15.07
2023-02-19T06:59:51.631Z,14.67
2023-02-19T07:02:56.777Z,17.70
2023-02-19T07:06:01.033Z,15.07
2023-02-19T07:09:05.754Z,16.87
2023-02-19T07:12:08.553Z,17.20
2023-02-19T07:15:11.097Z,12.73
2023-02-19T07:18:13.685Z,15.07
2023-02-19T07:21:17.462Z,13.05
2023-02-19T07:24:21.774Z,13.57
2023-02-19T07:27:24.148Z,13.40
2023-02-19T07:30:26.719Z,13.73
2023-02-19T07:33:29.082Z,13.15
2023-02-19T07:36:31.349Z,12.45
2023-02-19T07:39:33.988Z,14.18
2023-02-19T07:42:36.244Z,13.30
2023-02-19T07:45:38.672Z,12.40
2023-02-19T07:48:43.073Z,11.70
2023-02-19T07:51:45.459Z,11.32
2023-02-19T07:54:48.659Z,13.30
2023-02-19T07:57:50.975Z,13.20
2023-02-19T08:00:53.420Z,10.90
2023-02-19T08:03:55.880Z,10.98
2023-02-19T08:06:58.150Z,12.70
2023-02-19T08:10:19.649Z,9.32
2023-02-19T08:13:28.264Z,11.93
2023-02-19T08:16:42.574Z,11.07
2023-02-19T08:19:45.448Z,15.77
2023-02-19T08:22:47.841Z,15.38
2023-02-19T08:25:51.210Z,11.12
2023-02-19T08:28:53.686Z,14.30
2023-02-19T08:31:56.096Z,13.23
2023-02-19T08:34:58.453Z,11.88
2023-02-19T08:38:00.855Z,12.07
2023-02-19T08:41:09.144Z,11.07
2023-02-19T08:44:11.800Z,12.13
2023-02-19T08:47:15.145Z,11.13
2023-02-19T08:50:17.624Z,12.65
2023-02-19T08:53:20.241Z,9.88
2023-02-19T08:56:22.670Z,12.00
2023-02-19T08:59:25.044Z,8.80
2023-02-19T09:02:27.423Z,11.73
2023-02-19T09:05:30.135Z,10.57
2023-02-19T09:08:32.512Z,10.18
2023-02-19T09:11:35.003Z,9.70
2023-02-19T09:14:38.463Z,10.57
2023-02-19T09:17:40.893Z,9.37
2023-02-19T09:20:43.299Z,10.90
2023-02-19T09:23:45.652Z,10.48
2023-02-19T09:26:55.117Z,11.02
2023-02-19T09:29:58.006Z,11.50
2023-02-19T09:33:00.373Z,8.67
2023-02-19T09:36:03.743Z,9.30
2023-02-19T09:39:08.007Z,7.35
2023-02-19T09:42:20.910Z,9.27
2023-02-19T09:45:25.773Z,6.03
2023-02-19T09:48:28.285Z,9.93
2023-02-19T09:51:34.091Z,9.82
2023-02-19T09:54:39.913Z,9.93
2023-02-19T09:57:43.944Z,8.88
2023-02-19T10:00:50.065Z,10.07
2023-02-19T10:03:53.166Z,10.10
2023-02-19T10:07:03.644Z,8.40
2023-02-19T10:10:24.692Z,10.38
2023-02-19T10:14:02.217Z,8.00
2023-02-19T10:17:07.771Z,9.70
2023-02-19T10:20:16.369Z,11.20
2023-02-19T10:23:19.781Z,8.45
2023-02-19T10:26:23.338Z,9.40
2023-02-19T10:29:27.738Z,7.87
2023-02-19T10:32:30.315Z,9.70
2023-02-19T10:35:58.395Z,5.83
2023-02-19T10:39:03.259Z,8.60
2023-02-19T10:42:06.649Z,9.85
2023-02-19T10:45:20.538Z,8.55
2023-02-19T10:48:36.846Z,9.03
2023-02-19T10:51:41.847Z,9.27
2023-02-19T10:54:45.868Z,8.85
2023-02-19T10:57:50.632Z,7.45
2023-02-19T11:01:21.731Z,7.37
2023-02-19T11:04:25.310Z,8.93
2023-02-19T11:07:28.032Z,8.33
2023-02-19T11:10:41.267Z,6.97
2023-02-19T11:13:44.147Z,8.75
2023-02-19T11:17:05.889Z,8.95
2023-02-19T11:20:18.148Z,8.57
2023-02-19T11:23:31.865Z,8.73
2023-02-19T11:26:38.543Z,9.02
2023-02-19T11:29:40.975Z,9.27
2023-02-19T11:32:43.413Z,8.65
2023-02-19T11:35:48.534Z,8.70
2023-02-19T11:38:53.283Z,9.63
2023-02-19T11:42:20.383Z,8.13
2023-02-19T11:45:29.429Z,8.98
2023-02-19T11:48:59.228Z,8.88
2023-02-19T11:52:59.610Z,7.60
2023-02-19T11:56:12.345Z,7.87
2023-02-19T11:59:34.155Z,8.60
2023-02-19T12:02:44.446Z,7.85
2023-02-19T12:05:56.008Z,8.13
2023-02-19T12:09:23.366Z,7.70
2023-02-19T12:12:32.362Z,5.97
2023-02-19T12:15:51.374Z,8.18
2023-02-19T12:19:18.881Z,7.90
2023-02-19T12:22:25.236Z,5.82
2023-02-19T12:25:50.755Z,6.95
2023-02-19T12:29:11.598Z,7.20
2023-02-19T12:33:01.786Z,6.57
2023-02-19T12:36:21.220Z,7.60
2023-02-19T12:39:29.446Z,7.30
2023-02-19T12:43:07.501Z,7.75
2023-02-19T12:46:20.880Z,7.13
2023-02-19T12:49:36.713Z,7.60
2023-02-19T12:52:44.473Z,7.30
2023-02-19T12:55:49.074Z,7.35
2023-02-19T12:58:59.426Z,7.75
2023-02-19T13:02:28.734Z,7.17
2023-02-19T13:05:44.405Z,7.30
2023-02-19T13:09:06.273Z,6.80
2023-02-19T13:12:26.629Z,7.55
2023-02-19T13:15:48.726Z,7.12
2023-02-19T13:18:56.537Z,9.13
2023-02-19T13:22:30.491Z,7.53
2023-02-19T13:26:12.274Z,7.15
2023-02-19T13:29:21.453Z,7.25
2023-02-19T13:32:38.686Z,7.12
2023-02-19T13:35:52.523Z,7.43
2023-02-19T13:38:57.789Z,7.70
2023-02-19T13:42:03.119Z,7.80
2023-02-19T13:45:07.476Z,6.45
2023-02-19T13:48:15.272Z,7.45
2023-02-19T13:51:27.844Z,7.20
2023-02-19T13:54:40.796Z,6.47
2023-02-19T13:57:45.269Z,6.12
2023-02-19T14:00:51.893Z,6.93
2023-02-19T14:04:08.328Z,6.32
2023-02-19T14:07:11.914Z,6.40
2023-02-19T14:10:54.848Z,5.37
2023-02-19T14:14:00.109Z,6.45
2023-02-19T14:17:06.159Z,6.80
2023-02-19T14:20:10.246Z,6.32
2023-02-19T14:23:18.514Z,6.40
2023-02-19T14:26:23.414Z,6.55
2023-02-19T14:29:29.347Z,6.35
2023-02-19T14:32:33.713Z,5.72
2023-02-19T14:35:45.830Z,5.87
2023-02-19T14:38:57.136Z,5.90
2023-02-19T14:42:07.326Z,5.65
2023-02-19T14:45:11.355Z,5.10
2023-02-19T14:48:31.859Z,5.62
2023-02-19T14:51:45.287Z,5.57
2023-02-19T14:54:57.031Z,5.50
2023-02-19T14:58:06.398Z,5.20
2023-02-19T15:01:29.013Z,5.55
2023-02-19T15:04:38.012Z,5.10
2023-02-19T15:07:42.795Z,5.22
2023-02-19T15:10:47.632Z,5.03
2023-02-19T15:14:01.653Z,5.80
2023-02-19T15:17:07.309Z,6.07
2023-02-19T15:20:16.930Z,5.28
2023-02-19T15:23:25.758Z,5.35
2023-02-19T15:26:36.337Z,4.93
2023-02-19T15:29:47.052Z,5.62
2023-02-19T15:32:59.410Z,5.75
2023-02-19T15:36:07.367Z,5.10
2023-02-19T15:39:25.136Z,5.12
2023-02-19T15:42:31.317Z,5.67
2023-02-19T15:45:47.474Z,5.75
2023-02-19T15:49:04.460Z,5.20
2023-02-19T15:52:18.866Z,5.32
2023-02-19T15:55:39.461Z,6.03
2023-02-19T15:59:00.100Z,5.80
2023-02-19T16:02:04.998Z,5.57
2023-02-19T16:05:14.423Z,5.97
2023-02-19T16:08:20.856Z,5.60
2023-02-19T16:11:24.045Z,6.07
2023-02-19T16:14:38.593Z,6.00
2023-02-19T16:17:46.330Z,5.85
2023-02-19T16:20:50.193Z,5.93
2023-02-19T16:24:09.718Z,7.60
2023-02-19T16:27:29.243Z,8.65
2023-02-19T16:30:34.559Z,6.87
2023-02-19T16:33:42.316Z,7.10
2023-02-19T16:36:48.898Z,7.87
2023-02-19T16:40:09.339Z,9.13
2023-02-19T16:43:18.278Z,11.32
2023-02-19T16:46:21.572Z,13.33
2023-02-19T16:49:25.698Z,8.48
2023-02-19T16:52:30.669Z,8.88
2023-02-19T16:55:37.167Z,8.88
2023-02-19T16:58:40.733Z,8.13
2023-02-19T17:01:44.807Z,10.80
2023-02-19T17:04:50.396Z,12.90
2023-02-19T17:07:54.927Z,9.93
2023-02-19T17:10:59.979Z,8.25
2023-02-19T17:14:06.556Z,9.47
2023-02-19T17:17:10.569Z,7.37
2023-02-19T17:20:20.343Z,9.07
2023-02-19T17:23:24.583Z,8.35
2023-02-19T17:26:31.022Z,8.65
2023-02-19T17:29:34.720Z,10.07
2023-02-19T17:32:39.497Z,11.10
2023-02-19T17:35:45.147Z,11.50
2023-02-19T17:38:48.747Z,11.85
2023-02-19T17:41:53.039Z,10.52
2023-02-19T17:44:56.803Z,10.80
2023-02-19T17:48:01.380Z,10.57
2023-02-19T17:51:05.064Z,10.45
2023-02-19T17:54:10.156Z,10.80
2023-02-19T17:57:14.249Z,10.30
2023-02-19T18:00:22.210Z,10.70
2023-02-19T18:03:27.022Z,11.13
2023-02-19T18:06:31.048Z,13.10
2023-02-19T18:09:35.049Z,14.45
2023-02-19T18:12:41.397Z,14.50
2023-02-19T18:15:47.414Z,18.07
2023-02-19T18:18:54.123Z,16.93
2023-02-19T18:21:58.769Z,16.75
2023-02-19T18:25:05.182Z,13.50
2023-02-19T18:28:10.537Z,11.57
2023-02-19T18:31:15.084Z,12.47
2023-02-19T18:34:20.280Z,12.23
2023-02-19T18:37:25.449Z,12.00
2023-02-19T18:40:31.499Z,11.82
2023-02-19T18:43:35.613Z,10.23
2023-02-19T18:46:39.011Z,10.17
2023-02-19T18:49:50.511Z,7.50
2023-02-19T18:52:54.378Z,12.25
2023-02-19T18:56:02.828Z,16.30
2023-02-19T18:59:07.039Z,6.78
2023-02-19T19:02:12.064Z,5.63
2023-02-19T19:05:21.708Z,5.23
2023-02-19T19:08:25.697Z,5.18
2023-02-19T19:11:30.177Z,4.75
2023-02-19T19:14:34.665Z,4.78
2023-02-19T19:17:40.799Z,6.87
2023-02-19T19:20:45.405Z,5.70
2023-02-19T19:23:51.056Z,4.05
2023-02-19T19:26:55.217Z,4.00
2023-02-19T19:29:59.154Z,2.65
2023-02-19T19:33:04.411Z,2.80
2023-02-19T19:36:10.583Z,2.77
2023-02-19T19:39:14.521Z,3.58
2023-02-19T19:42:19.532Z,2.45
2023-02-19T19:45:27.874Z,1.40
2023-02-19T19:48:35.002Z,1.20
2023-02-19T19:51:47.798Z,0.90
2023-02-19T19:54:55.542Z,0.65
2023-02-19T19:58:01.374Z,0.93
2023-02-19T20:01:06.902Z,0.80
2023-02-19T20:04:13.961Z,0.50
2023-02-19T20:07:18.472Z,0.53
2023-02-19T20:10:23.328Z,0.45
2023-02-19T20:13:34.523Z,0.80
2023-02-19T20:16:40.193Z,0.40
2023-02-19T20:19:46.061Z,0.70
2023-02-19T20:22:54.954Z,0.97
2023-02-19T20:26:08.408Z,0.47
2023-02-19T20:29:13.877Z,0.75
2023-02-19T20:32:21.260Z,0.50
2023-02-19T20:35:29.689Z,0.50
2023-02-19T20:38:33.444Z,0.50
2023-02-19T20:41:37.614Z,0.60
2023-02-19T20:44:44.150Z,0.50
2023-02-19T20:47:48.652Z,0.50
2023-02-19T20:50:52.555Z,0.50
2023-02-19T20:53:59.633Z,0.50
2023-02-19T20:57:06.491Z,0.68
2023-02-19T21:00:11.837Z,0.98
2023-02-19T21:03:17.318Z,0.52
2023-02-19T21:06:22.437Z,0.50
2023-02-19T21:09:26.669Z,0.60
2023-02-19T21:12:31.137Z,0.32
2023-02-19T21:15:36.138Z,0.40
2023-02-19T21:18:39.428Z,0.30
2023-02-19T21:21:44.638Z,0.50
2023-02-19T21:24:53.294Z,0.40
2023-02-19T21:27:57.235Z,0.50
2023-02-19T21:31:00.225Z,0.30
2023-02-19T21:34:05.527Z,0.43
2023-02-19T21:37:08.720Z,0.40
2023-02-19T21:40:13.375Z,0.43
2023-02-19T21:43:16.679Z,0.52
2023-02-19T21:46:20.435Z,0.40
2023-02-19T21:49:23.861Z,0.40
2023-02-19T21:52:27.247Z,0.50
2023-02-19T21:55:29.617Z,0.30
2023-02-19T21:58:33.860Z,0.30
2023-02-19T22:01:40.710Z,0.40
2023-02-19T22:04:43.203Z,0.40
2023-02-19T22:07:47.277Z,0.40
2023-02-19T22:10:52.225Z,0.40
2023-02-19T22:13:54.553Z,0.47
2023-02-19T22:16:58.172Z,0.60
2023-02-19T22:20:03.288Z,0.52
2023-02-19T22:23:06.607Z,0.63
2023-02-19T22:26:09.089Z,0.80
2023-02-19T22:29:15.210Z,0.70
2023-02-19T22:32:19.098Z,0.80
2023-02-19T22:35:22.458Z,1.10
2023-02-19T22:38:25.608Z,0.80
2023-02-19T22:41:29.183Z,1.03
2023-02-19T22:44:31.575Z,0.70
2023-02-19T22:47:34.912Z,1.00
2023-02-19T22:50:37.992Z,0.98
2023-02-19T22:53:54.305Z,1.20
2023-02-19T22:56:56.891Z,1.10
2023-02-19T23:00:00.081Z,1.20
2023-02-19T23:03:03.876Z,1.12
2023-02-19T23:06:06.698Z,1.10
2023-02-19T23:09:14.614Z,1.27
2023-02-19T23:12:16.953Z,1.00
2023-02-19T23:15:19.289Z,1.20
2023-02-19T23:18:21.693Z,1.00
2023-02-19T23:21:24.079Z,0.90
2023-02-19T23:24:26.528Z,0.80
2023-02-19T23:27:28.829Z,0.70
2023-02-19T23:30:33.383Z,0.80
2023-02-19T23:33:36.270Z,0.85
2023-02-19T23:36:43.442Z,0.80
2023-02-19T23:39:45.776Z,0.77
2023-02-19T23:42:48.166Z,0.90
2023-02-19T23:45:50.842Z,0.65
2023-02-19T23:48:53.377Z,0.60
2023-02-19T23:51:56.036Z,0.50
2023-02-19T23:54:59.146Z,0.30
2023-02-19T23:58:01.568Z,0.20
